sensor_id;sensor_type;location;lat;lon;timestamp;P1;durP1;ratioP1;P2;durP2;ratioP2
36629;SDS011;36256;42.154;23.002;2024-01-06T00:00:21;31.73;;;18.75;;
36629;SDS011;36256;42.154;23.002;2024-01-06T00:02:49;39.88;;;25.92;;
36629;SDS011;36256;42.154;23.002;2024-01-06T00:05:16;42.75;;;25.77;;
36629;SDS011;36256;42.154;23.002;2024-01-06T00:07:43;39.47;;;24.58;;
36629;SDS011;36256;42.154;23.002;2024-01-06T00:10:09;36.38;;;23.45;;
36629;SDS011;36256;42.154;23.002;2024-01-06T00:12:38;39.35;;;24.35;;
36629;SDS011;36256;42.154;23.002;2024-01-06T00:15:04;39.28;;;24.27;;
36629;SDS011;36256;42.154;23.002;2024-01-06T00:17:32;42.45;;;25.73;;
36629;SDS011;36256;42.154;23.002;2024-01-06T00:19:58;43.15;;;24.20;;
36629;SDS011;36256;42.154;23.002;2024-01-06T00:22:26;44.85;;;25.55;;
36629;SDS011;36256;42.154;23.002;2024-01-06T00:24:53;41.97;;;25.30;;
36629;SDS011;36256;42.154;23.002;2024-01-06T00:27:20;43.60;;;25.92;;
36629;SDS011;36256;42.154;23.002;2024-01-06T00:29:46;45.92;;;25.83;;
36629;SDS011;36256;42.154;23.002;2024-01-06T00:32:13;41.92;;;25.63;;
36629;SDS011;36256;42.154;23.002;2024-01-06T00:34:40;46.38;;;26.52;;
36629;SDS011;36256;42.154;23.002;2024-01-06T00:37:07;44.30;;;25.83;;
36629;SDS011;36256;42.154;23.002;2024-01-06T00:39:33;32.78;;;20.52;;
36629;SDS011;36256;42.154;23.002;2024-01-06T00:42:00;28.65;;;17.08;;
36629;SDS011;36256;42.154;23.002;2024-01-06T00:44:27;36.58;;;22.05;;
36629;SDS011;36256;42.154;23.002;2024-01-06T00:46:54;37.58;;;23.20;;
36629;SDS011;36256;42.154;23.002;2024-01-06T00:49:20;43.67;;;26.13;;
36629;SDS011;36256;42.154;23.002;2024-01-06T00:51:47;41.03;;;26.33;;
36629;SDS011;36256;42.154;23.002;2024-01-06T00:54:14;41.42;;;26.90;;
36629;SDS011;36256;42.154;23.002;2024-01-06T00:56:41;45.17;;;26.05;;
36629;SDS011;36256;42.154;23.002;2024-01-06T00:59:09;34.15;;;20.83;;
36629;SDS011;36256;42.154;23.002;2024-01-06T01:01:36;28.48;;;19.05;;
36629;SDS011;36256;42.154;23.002;2024-01-06T01:04:02;22.10;;;13.40;;
36629;SDS011;36256;42.154;23.002;2024-01-06T01:06:29;33.88;;;20.02;;
36629;SDS011;36256;42.154;23.002;2024-01-06T01:08:56;29.35;;;19.80;;
36629;SDS011;36256;42.154;23.002;2024-01-06T01:11:23;26.50;;;16.17;;
36629;SDS011;36256;42.154;23.002;2024-01-06T01:13:49;27.67;;;16.85;;
36629;SDS011;36256;42.154;23.002;2024-01-06T01:16:16;26.40;;;16.77;;
36629;SDS011;36256;42.154;23.002;2024-01-06T01:18:43;28.98;;;18.25;;
36629;SDS011;36256;42.154;23.002;2024-01-06T01:21:09;25.15;;;16.40;;
36629;SDS011;36256;42.154;23.002;2024-01-06T01:23:37;23.02;;;14.73;;
36629;SDS011;36256;42.154;23.002;2024-01-06T01:26:03;20.83;;;13.95;;
36629;SDS011;36256;42.154;23.002;2024-01-06T01:28:30;20.45;;;13.60;;
36629;SDS011;36256;42.154;23.002;2024-01-06T01:30:59;20.48;;;12.40;;
36629;SDS011;36256;42.154;23.002;2024-01-06T01:33:26;18.67;;;12.68;;
36629;SDS011;36256;42.154;23.002;2024-01-06T01:35:53;18.98;;;11.55;;
36629;SDS011;36256;42.154;23.002;2024-01-06T01:38:20;17.90;;;11.52;;
36629;SDS011;36256;42.154;23.002;2024-01-06T01:40:46;17.40;;;11.25;;
36629;SDS011;36256;42.154;23.002;2024-01-06T01:43:17;22.50;;;13.65;;
36629;SDS011;36256;42.154;23.002;2024-01-06T01:45:45;16.90;;;10.63;;
36629;SDS011;36256;42.154;23.002;2024-01-06T01:48:16;16.08;;;9.60;;
36629;SDS011;36256;42.154;23.002;2024-01-06T01:50:43;14.10;;;9.60;;
36629;SDS011;36256;42.154;23.002;2024-01-06T01:53:10;16.23;;;9.88;;
36629;SDS011;36256;42.154;23.002;2024-01-06T01:55:38;16.98;;;9.75;;
36629;SDS011;36256;42.154;23.002;2024-01-06T01:58:06;38.70;;;22.83;;
36629;SDS011;36256;42.154;23.002;2024-01-06T02:00:34;15.40;;;10.75;;
36629;SDS011;36256;42.154;23.002;2024-01-06T02:03:01;15.80;;;10.05;;
36629;SDS011;36256;42.154;23.002;2024-01-06T02:05:30;12.38;;;8.43;;
36629;SDS011;36256;42.154;23.002;2024-01-06T02:07:57;13.13;;;8.23;;
36629;SDS011;36256;42.154;23.002;2024-01-06T02:10:24;10.95;;;7.68;;
36629;SDS011;36256;42.154;23.002;2024-01-06T02:12:51;14.90;;;7.50;;
36629;SDS011;36256;42.154;23.002;2024-01-06T02:15:18;10.95;;;7.32;;
36629;SDS011;36256;42.154;23.002;2024-01-06T02:17:45;10.38;;;6.53;;
36629;SDS011;36256;42.154;23.002;2024-01-06T02:20:12;10.82;;;7.05;;
36629;SDS011;36256;42.154;23.002;2024-01-06T02:22:40;10.57;;;7.07;;
36629;SDS011;36256;42.154;23.002;2024-01-06T02:25:07;13.40;;;8.32;;
36629;SDS011;36256;42.154;23.002;2024-01-06T02:27:39;11.82;;;8.07;;
36629;SDS011;36256;42.154;23.002;2024-01-06T02:30:06;13.80;;;8.15;;
36629;SDS011;36256;42.154;23.002;2024-01-06T02:32:33;13.60;;;8.43;;
36629;SDS011;36256;42.154;23.002;2024-01-06T02:35:00;24.13;;;15.60;;
36629;SDS011;36256;42.154;23.002;2024-01-06T02:37:27;22.42;;;14.13;;
36629;SDS011;36256;42.154;23.002;2024-01-06T02:39:54;18.52;;;12.02;;
36629;SDS011;36256;42.154;23.002;2024-01-06T02:42:21;18.65;;;12.35;;
36629;SDS011;36256;42.154;23.002;2024-01-06T02:44:47;19.08;;;12.38;;
36629;SDS011;36256;42.154;23.002;2024-01-06T02:47:14;16.13;;;10.30;;
36629;SDS011;36256;42.154;23.002;2024-01-06T02:49:41;11.23;;;7.50;;
36629;SDS011;36256;42.154;23.002;2024-01-06T02:52:08;14.75;;;8.32;;
36629;SDS011;36256;42.154;23.002;2024-01-06T02:54:34;17.17;;;11.52;;
36629;SDS011;36256;42.154;23.002;2024-01-06T02:57:01;13.25;;;9.43;;
36629;SDS011;36256;42.154;23.002;2024-01-06T02:59:27;11.23;;;6.93;;
36629;SDS011;36256;42.154;23.002;2024-01-06T03:01:54;14.10;;;8.57;;
36629;SDS011;36256;42.154;23.002;2024-01-06T03:04:21;16.00;;;9.18;;
36629;SDS011;36256;42.154;23.002;2024-01-06T03:06:47;15.63;;;10.20;;
36629;SDS011;36256;42.154;23.002;2024-01-06T03:09:18;17.02;;;10.55;;
36629;SDS011;36256;42.154;23.002;2024-01-06T03:11:48;16.92;;;10.52;;
36629;SDS011;36256;42.154;23.002;2024-01-06T03:14:14;17.42;;;10.55;;
36629;SDS011;36256;42.154;23.002;2024-01-06T03:16:41;17.40;;;10.82;;
36629;SDS011;36256;42.154;23.002;2024-01-06T03:19:08;17.60;;;10.77;;
36629;SDS011;36256;42.154;23.002;2024-01-06T03:21:34;16.00;;;10.20;;
36629;SDS011;36256;42.154;23.002;2024-01-06T03:24:04;17.63;;;11.40;;
36629;SDS011;36256;42.154;23.002;2024-01-06T03:26:31;17.90;;;11.63;;
36629;SDS011;36256;42.154;23.002;2024-01-06T03:28:59;17.83;;;11.48;;
36629;SDS011;36256;42.154;23.002;2024-01-06T03:31:25;18.55;;;10.07;;
36629;SDS011;36256;42.154;23.002;2024-01-06T03:33:52;17.88;;;10.75;;
36629;SDS011;36256;42.154;23.002;2024-01-06T03:36:21;18.45;;;11.00;;
36629;SDS011;36256;42.154;23.002;2024-01-06T03:38:48;19.35;;;11.80;;
36629;SDS011;36256;42.154;23.002;2024-01-06T03:41:15;18.05;;;11.52;;
36629;SDS011;36256;42.154;23.002;2024-01-06T03:43:41;19.63;;;12.32;;
36629;SDS011;36256;42.154;23.002;2024-01-06T03:46:08;22.75;;;12.55;;
36629;SDS011;36256;42.154;23.002;2024-01-06T03:48:35;20.17;;;13.25;;
36629;SDS011;36256;42.154;23.002;2024-01-06T03:51:02;21.27;;;12.82;;
36629;SDS011;36256;42.154;23.002;2024-01-06T03:53:29;20.63;;;13.60;;
36629;SDS011;36256;42.154;23.002;2024-01-06T03:55:55;25.92;;;14.65;;
36629;SDS011;36256;42.154;23.002;2024-01-06T03:58:22;21.95;;;14.02;;
36629;SDS011;36256;42.154;23.002;2024-01-06T04:00:49;27.92;;;17.23;;
36629;SDS011;36256;42.154;23.002;2024-01-06T04:03:15;42.03;;;24.63;;
36629;SDS011;36256;42.154;23.002;2024-01-06T04:05:42;31.88;;;18.85;;
36629;SDS011;36256;42.154;23.002;2024-01-06T04:08:09;25.35;;;14.77;;
36629;SDS011;36256;42.154;23.002;2024-01-06T04:10:35;26.60;;;15.80;;
36629;SDS011;36256;42.154;23.002;2024-01-06T04:13:02;31.48;;;18.77;;
36629;SDS011;36256;42.154;23.002;2024-01-06T04:15:29;27.92;;;16.38;;
36629;SDS011;36256;42.154;23.002;2024-01-06T04:17:56;31.40;;;18.63;;
36629;SDS011;36256;42.154;23.002;2024-01-06T04:20:23;27.50;;;17.05;;
36629;SDS011;36256;42.154;23.002;2024-01-06T04:22:49;29.00;;;16.48;;
36629;SDS011;36256;42.154;23.002;2024-01-06T04:25:16;21.20;;;13.02;;
36629;SDS011;36256;42.154;23.002;2024-01-06T04:27:42;14.48;;;8.93;;
36629;SDS011;36256;42.154;23.002;2024-01-06T04:30:12;20.10;;;12.10;;
36629;SDS011;36256;42.154;23.002;2024-01-06T04:32:39;19.10;;;11.80;;
36629;SDS011;36256;42.154;23.002;2024-01-06T04:35:06;27.00;;;14.93;;
36629;SDS011;36256;42.154;23.002;2024-01-06T04:37:33;23.77;;;13.85;;
36629;SDS011;36256;42.154;23.002;2024-01-06T04:40:00;24.52;;;14.52;;
36629;SDS011;36256;42.154;23.002;2024-01-06T04:42:27;26.00;;;14.80;;
36629;SDS011;36256;42.154;23.002;2024-01-06T04:44:54;28.38;;;15.68;;
36629;SDS011;36256;42.154;23.002;2024-01-06T04:47:20;28.08;;;16.25;;
36629;SDS011;36256;42.154;23.002;2024-01-06T04:49:47;27.52;;;17.27;;
36629;SDS011;36256;42.154;23.002;2024-01-06T04:52:14;28.05;;;17.02;;
36629;SDS011;36256;42.154;23.002;2024-01-06T04:54:40;29.95;;;17.00;;
36629;SDS011;36256;42.154;23.002;2024-01-06T04:57:07;20.38;;;12.40;;
36629;SDS011;36256;42.154;23.002;2024-01-06T04:59:34;28.05;;;17.38;;
36629;SDS011;36256;42.154;23.002;2024-01-06T05:02:00;22.02;;;12.85;;
36629;SDS011;36256;42.154;23.002;2024-01-06T05:04:27;28.38;;;16.73;;
36629;SDS011;36256;42.154;23.002;2024-01-06T05:06:57;29.02;;;17.70;;
36629;SDS011;36256;42.154;23.002;2024-01-06T05:09:24;26.98;;;17.40;;
36629;SDS011;36256;42.154;23.002;2024-01-06T05:11:52;28.92;;;17.00;;
36629;SDS011;36256;42.154;23.002;2024-01-06T05:14:18;29.30;;;17.70;;
36629;SDS011;36256;42.154;23.002;2024-01-06T05:16:45;31.95;;;17.92;;
36629;SDS011;36256;42.154;23.002;2024-01-06T05:19:12;31.70;;;17.45;;
36629;SDS011;36256;42.154;23.002;2024-01-06T05:21:46;28.35;;;17.55;;
36629;SDS011;36256;42.154;23.002;2024-01-06T05:24:14;30.63;;;18.23;;
36629;SDS011;36256;42.154;23.002;2024-01-06T05:26:41;33.42;;;19.27;;
36629;SDS011;36256;42.154;23.002;2024-01-06T05:29:10;36.13;;;21.17;;
36629;SDS011;36256;42.154;23.002;2024-01-06T05:31:37;35.50;;;20.52;;
36629;SDS011;36256;42.154;23.002;2024-01-06T05:34:03;59.95;;;34.72;;
36629;SDS011;36256;42.154;23.002;2024-01-06T05:36:31;65.47;;;35.95;;
36629;SDS011;36256;42.154;23.002;2024-01-06T05:38:58;38.33;;;22.08;;
36629;SDS011;36256;42.154;23.002;2024-01-06T05:41:26;44.45;;;25.85;;
36629;SDS011;36256;42.154;23.002;2024-01-06T05:43:53;45.50;;;25.55;;
36629;SDS011;36256;42.154;23.002;2024-01-06T05:46:20;63.30;;;34.85;;
36629;SDS011;36256;42.154;23.002;2024-01-06T05:48:48;55.83;;;30.95;;
36629;SDS011;36256;42.154;23.002;2024-01-06T05:51:15;37.95;;;22.25;;
36629;SDS011;36256;42.154;23.002;2024-01-06T05:53:41;38.90;;;21.55;;
36629;SDS011;36256;42.154;23.002;2024-01-06T05:56:08;46.72;;;23.83;;
36629;SDS011;36256;42.154;23.002;2024-01-06T06:01:02;50.83;;;25.08;;
36629;SDS011;36256;42.154;23.002;2024-01-06T06:03:29;43.83;;;22.30;;
36629;SDS011;36256;42.154;23.002;2024-01-06T06:05:56;35.53;;;21.25;;
36629;SDS011;36256;42.154;23.002;2024-01-06T06:08:22;39.55;;;24.27;;
36629;SDS011;36256;42.154;23.002;2024-01-06T06:10:49;37.67;;;21.70;;
36629;SDS011;36256;42.154;23.002;2024-01-06T06:13:28;46.38;;;26.65;;
36629;SDS011;36256;42.154;23.002;2024-01-06T06:15:55;61.58;;;34.08;;
36629;SDS011;36256;42.154;23.002;2024-01-06T06:20:49;37.33;;;22.42;;
36629;SDS011;36256;42.154;23.002;2024-01-06T06:23:15;37.17;;;22.10;;
36629;SDS011;36256;42.154;23.002;2024-01-06T06:25:42;37.78;;;22.38;;
36629;SDS011;36256;42.154;23.002;2024-01-06T06:28:09;36.90;;;19.65;;
36629;SDS011;36256;42.154;23.002;2024-01-06T06:30:36;37.20;;;19.83;;
36629;SDS011;36256;42.154;23.002;2024-01-06T06:33:02;33.63;;;19.02;;
36629;SDS011;36256;42.154;23.002;2024-01-06T06:35:29;33.13;;;19.98;;
36629;SDS011;36256;42.154;23.002;2024-01-06T06:37:56;26.67;;;15.52;;
36629;SDS011;36256;42.154;23.002;2024-01-06T06:40:23;35.33;;;20.33;;
36629;SDS011;36256;42.154;23.002;2024-01-06T06:42:50;25.77;;;15.68;;
36629;SDS011;36256;42.154;23.002;2024-01-06T06:45:17;38.45;;;21.67;;
36629;SDS011;36256;42.154;23.002;2024-01-06T06:47:46;33.97;;;20.88;;
36629;SDS011;36256;42.154;23.002;2024-01-06T06:50:13;33.75;;;20.92;;
36629;SDS011;36256;42.154;23.002;2024-01-06T06:52:40;56.10;;;31.13;;
36629;SDS011;36256;42.154;23.002;2024-01-06T06:55:08;39.78;;;23.48;;
36629;SDS011;36256;42.154;23.002;2024-01-06T06:57:35;38.65;;;21.60;;
36629;SDS011;36256;42.154;23.002;2024-01-06T07:00:02;37.22;;;21.80;;
36629;SDS011;36256;42.154;23.002;2024-01-06T07:02:29;62.35;;;35.88;;
36629;SDS011;36256;42.154;23.002;2024-01-06T07:04:56;76.00;;;40.35;;
36629;SDS011;36256;42.154;23.002;2024-01-06T07:07:22;55.40;;;32.60;;
36629;SDS011;36256;42.154;23.002;2024-01-06T07:09:49;39.83;;;23.52;;
36629;SDS011;36256;42.154;23.002;2024-01-06T07:12:16;36.33;;;22.15;;
36629;SDS011;36256;42.154;23.002;2024-01-06T07:14:42;37.58;;;21.10;;
36629;SDS011;36256;42.154;23.002;2024-01-06T07:17:09;36.22;;;21.45;;
36629;SDS011;36256;42.154;23.002;2024-01-06T07:19:36;39.70;;;22.52;;
36629;SDS011;36256;42.154;23.002;2024-01-06T07:22:04;38.28;;;22.08;;
36629;SDS011;36256;42.154;23.002;2024-01-06T07:24:32;36.67;;;21.67;;
36629;SDS011;36256;42.154;23.002;2024-01-06T07:26:59;39.70;;;25.88;;
36629;SDS011;36256;42.154;23.002;2024-01-06T07:29:26;40.17;;;24.90;;
36629;SDS011;36256;42.154;23.002;2024-01-06T07:31:52;42.90;;;24.85;;
36629;SDS011;36256;42.154;23.002;2024-01-06T07:34:19;42.22;;;26.02;;
36629;SDS011;36256;42.154;23.002;2024-01-06T07:36:46;61.67;;;39.80;;
36629;SDS011;36256;42.154;23.002;2024-01-06T07:39:13;60.15;;;36.47;;
36629;SDS011;36256;42.154;23.002;2024-01-06T07:41:40;60.58;;;34.47;;
36629;SDS011;36256;42.154;23.002;2024-01-06T07:44:06;44.55;;;26.15;;
36629;SDS011;36256;42.154;23.002;2024-01-06T07:46:33;45.80;;;25.67;;
36629;SDS011;36256;42.154;23.002;2024-01-06T07:49:01;50.45;;;28.35;;
36629;SDS011;36256;42.154;23.002;2024-01-06T07:51:28;50.60;;;28.52;;
36629;SDS011;36256;42.154;23.002;2024-01-06T07:53:55;46.42;;;27.20;;
36629;SDS011;36256;42.154;23.002;2024-01-06T07:56:21;30.55;;;18.27;;
36629;SDS011;36256;42.154;23.002;2024-01-06T07:58:48;33.00;;;20.27;;
36629;SDS011;36256;42.154;23.002;2024-01-06T08:01:15;34.65;;;21.60;;
36629;SDS011;36256;42.154;23.002;2024-01-06T08:03:41;39.58;;;24.80;;
36629;SDS011;36256;42.154;23.002;2024-01-06T08:06:09;45.08;;;25.45;;
36629;SDS011;36256;42.154;23.002;2024-01-06T08:08:36;49.78;;;30.75;;
36629;SDS011;36256;42.154;23.002;2024-01-06T08:11:03;52.92;;;31.38;;
36629;SDS011;36256;42.154;23.002;2024-01-06T08:13:30;53.08;;;34.33;;
36629;SDS011;36256;42.154;23.002;2024-01-06T08:15:57;48.67;;;29.88;;
36629;SDS011;36256;42.154;23.002;2024-01-06T08:18:23;41.47;;;25.90;;
36629;SDS011;36256;42.154;23.002;2024-01-06T08:20:51;39.92;;;24.95;;
36629;SDS011;36256;42.154;23.002;2024-01-06T08:23:18;42.40;;;26.05;;
36629;SDS011;36256;42.154;23.002;2024-01-06T08:25:46;43.30;;;25.08;;
36629;SDS011;36256;42.154;23.002;2024-01-06T08:28:13;35.35;;;22.92;;
36629;SDS011;36256;42.154;23.002;2024-01-06T08:30:41;45.53;;;25.45;;
36629;SDS011;36256;42.154;23.002;2024-01-06T08:33:09;58.75;;;30.95;;
36629;SDS011;36256;42.154;23.002;2024-01-06T08:35:36;54.40;;;30.73;;
36629;SDS011;36256;42.154;23.002;2024-01-06T08:38:07;38.63;;;22.27;;
36629;SDS011;36256;42.154;23.002;2024-01-06T08:40:34;35.10;;;21.80;;
36629;SDS011;36256;42.154;23.002;2024-01-06T08:43:01;35.03;;;20.00;;
36629;SDS011;36256;42.154;23.002;2024-01-06T08:45:29;38.63;;;23.17;;
36629;SDS011;36256;42.154;23.002;2024-01-06T08:47:56;33.45;;;20.45;;
36629;SDS011;36256;42.154;23.002;2024-01-06T08:52:50;35.60;;;21.17;;
36629;SDS011;36256;42.154;23.002;2024-01-06T08:55:16;34.72;;;21.58;;
36629;SDS011;36256;42.154;23.002;2024-01-06T08:57:43;38.05;;;20.75;;
36629;SDS011;36256;42.154;23.002;2024-01-06T09:00:10;35.20;;;21.10;;
36629;SDS011;36256;42.154;23.002;2024-01-06T09:02:37;39.25;;;22.27;;
36629;SDS011;36256;42.154;23.002;2024-01-06T09:05:04;29.83;;;17.38;;
36629;SDS011;36256;42.154;23.002;2024-01-06T09:07:31;34.83;;;19.70;;
36629;SDS011;36256;42.154;23.002;2024-01-06T09:09:58;25.92;;;16.73;;
36629;SDS011;36256;42.154;23.002;2024-01-06T09:12:25;21.33;;;12.35;;
36629;SDS011;36256;42.154;23.002;2024-01-06T09:14:52;11.20;;;4.63;;
36629;SDS011;36256;42.154;23.002;2024-01-06T09:17:19;19.23;;;11.30;;
36629;SDS011;36256;42.154;23.002;2024-01-06T09:19:49;10.82;;;6.10;;
36629;SDS011;36256;42.154;23.002;2024-01-06T09:22:16;13.20;;;8.18;;
36629;SDS011;36256;42.154;23.002;2024-01-06T09:24:42;7.05;;;3.88;;
36629;SDS011;36256;42.154;23.002;2024-01-06T09:27:09;6.57;;;2.78;;
36629;SDS011;36256;42.154;23.002;2024-01-06T09:29:36;6.65;;;2.25;;
36629;SDS011;36256;42.154;23.002;2024-01-06T09:32:02;7.15;;;2.38;;
36629;SDS011;36256;42.154;23.002;2024-01-06T09:34:29;6.75;;;2.28;;
36629;SDS011;36256;42.154;23.002;2024-01-06T09:36:56;5.70;;;1.90;;
36629;SDS011;36256;42.154;23.002;2024-01-06T09:39:23;9.52;;;3.28;;
36629;SDS011;36256;42.154;23.002;2024-01-06T09:41:50;5.25;;;2.88;;
36629;SDS011;36256;42.154;23.002;2024-01-06T09:44:17;13.68;;;5.93;;
36629;SDS011;36256;42.154;23.002;2024-01-06T09:46:44;6.93;;;3.03;;
36629;SDS011;36256;42.154;23.002;2024-01-06T09:49:11;4.78;;;2.50;;
36629;SDS011;36256;42.154;23.002;2024-01-06T09:51:39;4.30;;;2.38;;
36629;SDS011;36256;42.154;23.002;2024-01-06T09:54:09;8.02;;;3.50;;
36629;SDS011;36256;42.154;23.002;2024-01-06T09:56:38;8.18;;;4.32;;
36629;SDS011;36256;42.154;23.002;2024-01-06T09:59:05;7.07;;;3.47;;
36629;SDS011;36256;42.154;23.002;2024-01-06T10:01:32;10.18;;;4.03;;
36629;SDS011;36256;42.154;23.002;2024-01-06T10:03:59;8.88;;;3.97;;
36629;SDS011;36256;42.154;23.002;2024-01-06T10:06:25;8.45;;;2.70;;
36629;SDS011;36256;42.154;23.002;2024-01-06T10:08:52;8.95;;;3.58;;
36629;SDS011;36256;42.154;23.002;2024-01-06T10:11:19;7.88;;;2.50;;
36629;SDS011;36256;42.154;23.002;2024-01-06T10:13:49;14.52;;;7.25;;
36629;SDS011;36256;42.154;23.002;2024-01-06T10:16:17;9.23;;;3.55;;
36629;SDS011;36256;42.154;23.002;2024-01-06T10:18:45;7.93;;;2.80;;
36629;SDS011;36256;42.154;23.002;2024-01-06T10:21:19;10.57;;;4.65;;
36629;SDS011;36256;42.154;23.002;2024-01-06T10:23:48;22.05;;;8.98;;
36629;SDS011;36256;42.154;23.002;2024-01-06T10:26:15;6.88;;;2.90;;
36629;SDS011;36256;42.154;23.002;2024-01-06T10:28:41;7.38;;;2.38;;
36629;SDS011;36256;42.154;23.002;2024-01-06T10:31:08;13.00;;;7.93;;
36629;SDS011;36256;42.154;23.002;2024-01-06T10:36:02;20.02;;;12.63;;
36629;SDS011;36256;42.154;23.002;2024-01-06T10:38:32;5.47;;;2.42;;
36629;SDS011;36256;42.154;23.002;2024-01-06T10:41:01;9.85;;;4.38;;
36629;SDS011;36256;42.154;23.002;2024-01-06T10:43:33;7.22;;;3.67;;
36629;SDS011;36256;42.154;23.002;2024-01-06T10:46:03;13.52;;;5.25;;
36629;SDS011;36256;42.154;23.002;2024-01-06T10:48:34;8.20;;;2.65;;
36629;SDS011;36256;42.154;23.002;2024-01-06T10:51:01;6.57;;;3.53;;
36629;SDS011;36256;42.154;23.002;2024-01-06T10:53:34;6.22;;;2.33;;
36629;SDS011;36256;42.154;23.002;2024-01-06T10:56:03;5.70;;;2.13;;
36629;SDS011;36256;42.154;23.002;2024-01-06T11:00:59;8.20;;;3.17;;
36629;SDS011;36256;42.154;23.002;2024-01-06T11:03:27;8.32;;;3.33;;
36629;SDS011;36256;42.154;23.002;2024-01-06T11:05:56;6.40;;;2.45;;
36629;SDS011;36256;42.154;23.002;2024-01-06T11:08:25;5.38;;;2.17;;
36629;SDS011;36256;42.154;23.002;2024-01-06T11:10:54;12.95;;;8.50;;
36629;SDS011;36256;42.154;23.002;2024-01-06T11:13:22;8.20;;;3.25;;
36629;SDS011;36256;42.154;23.002;2024-01-06T11:15:50;5.30;;;2.55;;
36629;SDS011;36256;42.154;23.002;2024-01-06T11:23:40;14.30;;;4.15;;
36629;SDS011;36256;42.154;23.002;2024-01-06T11:26:07;6.72;;;3.22;;
36629;SDS011;36256;42.154;23.002;2024-01-06T11:28:51;8.68;;;2.63;;
36629;SDS011;36256;42.154;23.002;2024-01-06T11:31:19;6.90;;;2.70;;
36629;SDS011;36256;42.154;23.002;2024-01-06T11:33:46;6.28;;;2.78;;
36629;SDS011;36256;42.154;23.002;2024-01-06T11:36:18;7.57;;;2.30;;
36629;SDS011;36256;42.154;23.002;2024-01-06T11:38:46;7.45;;;3.22;;
36629;SDS011;36256;42.154;23.002;2024-01-06T11:44:21;8.77;;;2.60;;
36629;SDS011;36256;42.154;23.002;2024-01-06T11:46:50;6.65;;;2.45;;
36629;SDS011;36256;42.154;23.002;2024-01-06T11:49:20;7.03;;;2.17;;
36629;SDS011;36256;42.154;23.002;2024-01-06T11:51:48;7.18;;;2.80;;
36629;SDS011;36256;42.154;23.002;2024-01-06T11:54:15;6.75;;;2.63;;
36629;SDS011;36256;42.154;23.002;2024-01-06T11:56:42;8.13;;;2.65;;
36629;SDS011;36256;42.154;23.002;2024-01-06T11:59:09;7.07;;;3.10;;
36629;SDS011;36256;42.154;23.002;2024-01-06T12:01:36;9.50;;;4.47;;
36629;SDS011;36256;42.154;23.002;2024-01-06T12:04:06;8.60;;;2.33;;
36629;SDS011;36256;42.154;23.002;2024-01-06T12:06:33;6.93;;;3.20;;
36629;SDS011;36256;42.154;23.002;2024-01-06T12:11:35;9.23;;;3.58;;
36629;SDS011;36256;42.154;23.002;2024-01-06T12:14:04;8.10;;;2.83;;
36629;SDS011;36256;42.154;23.002;2024-01-06T12:16:31;7.57;;;2.38;;
36629;SDS011;36256;42.154;23.002;2024-01-06T12:18:59;7.82;;;2.72;;
36629;SDS011;36256;42.154;23.002;2024-01-06T12:21:27;7.53;;;3.33;;
36629;SDS011;36256;42.154;23.002;2024-01-06T12:23:54;5.13;;;2.92;;
36629;SDS011;36256;42.154;23.002;2024-01-06T12:26:40;8.25;;;2.90;;
36629;SDS011;36256;42.154;23.002;2024-01-06T12:29:08;4.97;;;3.08;;
36629;SDS011;36256;42.154;23.002;2024-01-06T12:31:35;6.60;;;2.85;;
36629;SDS011;36256;42.154;23.002;2024-01-06T12:34:06;7.53;;;3.38;;
36629;SDS011;36256;42.154;23.002;2024-01-06T12:36:37;10.20;;;5.05;;
36629;SDS011;36256;42.154;23.002;2024-01-06T12:39:10;6.40;;;3.30;;
36629;SDS011;36256;42.154;23.002;2024-01-06T12:41:40;9.52;;;4.40;;
36629;SDS011;36256;42.154;23.002;2024-01-06T12:44:08;11.65;;;3.42;;
36629;SDS011;36256;42.154;23.002;2024-01-06T12:46:35;7.15;;;3.25;;
36629;SDS011;36256;42.154;23.002;2024-01-06T12:49:02;6.88;;;2.88;;
36629;SDS011;36256;42.154;23.002;2024-01-06T12:51:29;16.10;;;9.65;;
36629;SDS011;36256;42.154;23.002;2024-01-06T12:53:56;13.88;;;7.40;;
36629;SDS011;36256;42.154;23.002;2024-01-06T12:56:23;7.22;;;3.28;;
36629;SDS011;36256;42.154;23.002;2024-01-06T12:58:50;7.75;;;3.10;;
36629;SDS011;36256;42.154;23.002;2024-01-06T13:01:16;17.58;;;7.78;;
36629;SDS011;36256;42.154;23.002;2024-01-06T13:03:44;10.45;;;3.42;;
36629;SDS011;36256;42.154;23.002;2024-01-06T13:06:11;12.23;;;5.32;;
36629;SDS011;36256;42.154;23.002;2024-01-06T13:08:40;12.32;;;5.88;;
36629;SDS011;36256;42.154;23.002;2024-01-06T13:11:08;13.38;;;5.55;;
36629;SDS011;36256;42.154;23.002;2024-01-06T13:13:35;26.60;;;11.20;;
36629;SDS011;36256;42.154;23.002;2024-01-06T13:16:02;16.60;;;6.45;;
36629;SDS011;36256;42.154;23.002;2024-01-06T13:18:33;22.83;;;10.30;;
36629;SDS011;36256;42.154;23.002;2024-01-06T13:20:59;7.18;;;3.45;;
36629;SDS011;36256;42.154;23.002;2024-01-06T13:23:26;29.92;;;13.65;;
36629;SDS011;36256;42.154;23.002;2024-01-06T13:25:53;35.10;;;16.05;;
36629;SDS011;36256;42.154;23.002;2024-01-06T13:28:24;23.38;;;10.65;;
36629;SDS011;36256;42.154;23.002;2024-01-06T13:31:00;21.30;;;10.70;;
36629;SDS011;36256;42.154;23.002;2024-01-06T13:33:30;29.75;;;16.08;;
36629;SDS011;36256;42.154;23.002;2024-01-06T13:38:24;18.42;;;9.15;;
36629;SDS011;36256;42.154;23.002;2024-01-06T13:40:52;26.38;;;15.32;;
36629;SDS011;36256;42.154;23.002;2024-01-06T13:43:19;37.45;;;18.50;;
36629;SDS011;36256;42.154;23.002;2024-01-06T13:45:46;21.92;;;12.80;;
36629;SDS011;36256;42.154;23.002;2024-01-06T13:48:15;25.10;;;12.88;;
36629;SDS011;36256;42.154;23.002;2024-01-06T13:50:46;20.40;;;10.23;;
36629;SDS011;36256;42.154;23.002;2024-01-06T13:53:16;12.73;;;6.85;;
36629;SDS011;36256;42.154;23.002;2024-01-06T13:55:46;11.80;;;6.68;;
36629;SDS011;36256;42.154;23.002;2024-01-06T13:58:13;13.38;;;7.28;;
36629;SDS011;36256;42.154;23.002;2024-01-06T14:00:39;11.57;;;6.03;;
36629;SDS011;36256;42.154;23.002;2024-01-06T14:03:06;12.48;;;6.65;;
36629;SDS011;36256;42.154;23.002;2024-01-06T14:05:33;19.15;;;6.60;;
36629;SDS011;36256;42.154;23.002;2024-01-06T14:08:01;18.95;;;7.28;;
36629;SDS011;36256;42.154;23.002;2024-01-06T14:10:28;10.32;;;6.00;;
36629;SDS011;36256;42.154;23.002;2024-01-06T14:12:56;15.20;;;7.70;;
36629;SDS011;36256;42.154;23.002;2024-01-06T14:15:23;15.52;;;8.60;;
36629;SDS011;36256;42.154;23.002;2024-01-06T14:17:50;17.25;;;9.80;;
36629;SDS011;36256;42.154;23.002;2024-01-06T14:20:29;21.55;;;9.70;;
36629;SDS011;36256;42.154;23.002;2024-01-06T14:22:58;19.95;;;11.60;;
36629;SDS011;36256;42.154;23.002;2024-01-06T14:25:30;24.92;;;12.95;;
36629;SDS011;36256;42.154;23.002;2024-01-06T14:28:00;24.17;;;14.82;;
36629;SDS011;36256;42.154;23.002;2024-01-06T14:30:27;19.35;;;13.05;;
36629;SDS011;36256;42.154;23.002;2024-01-06T14:32:55;21.85;;;14.02;;
36629;SDS011;36256;42.154;23.002;2024-01-06T14:35:22;47.08;;;24.40;;
36629;SDS011;36256;42.154;23.002;2024-01-06T14:37:49;37.80;;;21.25;;
36629;SDS011;36256;42.154;23.002;2024-01-06T14:40:19;17.55;;;8.45;;
36629;SDS011;36256;42.154;23.002;2024-01-06T14:42:49;16.13;;;10.18;;